^^
Saratoga-Weather Station Historical Data
Daily Summary for September 30, 2021 Units:  Both    English   Metric
Daily Weekly Monthly Yearly Custom
  High: Low: Average:
Temperature: 61.5 °F /  16.4 °C 50.5 °F /  10.3 °C 54.9 °F /  12.7 °C
Dew Point: 49.3 °F /  9.6 °C 43.9 °F /  6.6 °C 46 °F /  7.8 °C
Humidity: 79% 63% 73%
Wind Speed: 4.9mph /  7.9km/h - 1.3mph /  2.1km/h
Wind Gust: 9mph /  14.5km/h - -
Wind- - SSE
Pressure: 30.3 in /  1024.4 hPa 30.2 in /  1023.7 hPa -
Precipitation: 0 in /  0.0 mm    
Historical Graphs
 
 
Tabular Data for September 30, 2021
Time Temperature Dew Point Pressure Wind Wind Speed Wind Gust Humidity Rainfall Rate (Hourly) solar
00:00 59 °F /  15 °C 46.4 °F /  8 °C 30.2in /  1024.0hPa North 2.9mph /  4.7km/h 4mph /  6.4km/h 63% 0in /  0.0mm 0 W/m2
00:05 58.8 °F /  14.9 °C 46.2 °F /  7.9 °C 30.2in /  1024.0hPa NW 0.9mph /  1.4km/h 9mph /  14.5km/h 63% 0in /  0.0mm 0 W/m2
00:10 58.8 °F /  14.9 °C 46.2 °F /  7.9 °C 30.2in /  1024.0hPa West 2.9mph /  4.7km/h 8mph /  12.9km/h 63% 0in /  0.0mm 0 W/m2
00:15 58.6 °F /  14.8 °C 46.6 °F /  8.1 °C 30.2in /  1024.0hPa NNW 4mph /  6.4km/h 9mph /  14.5km/h 64% 0in /  0.0mm 0 W/m2
00:20 58.5 °F /  14.7 °C 46.4 °F /  8 °C 30.2in /  1024.0hPa WNW 0.9mph /  1.4km/h 7mph /  11.3km/h 64% 0in /  0.0mm 0 W/m2
00:25 58.5 °F /  14.7 °C 46.8 °F /  8.2 °C 30.2in /  1024.0hPa WNW 2.9mph /  4.7km/h 4mph /  6.4km/h 65% 0in /  0.0mm 0 W/m2
00:31 58.3 °F /  14.6 °C 46.6 °F /  8.1 °C 30.2in /  1024.0hPa WNW 2.9mph /  4.7km/h 7mph /  11.3km/h 65% 0in /  0.0mm 0 W/m2
00:36 58.3 °F /  14.6 °C 46.9 °F /  8.3 °C 30.2in /  1024.0hPa SW 2.9mph /  4.7km/h 4mph /  6.4km/h 66% 0in /  0.0mm 0 W/m2
00:41 58.3 °F /  14.6 °C 46.9 °F /  8.3 °C 30.2in /  1024.0hPa WNW 4.9mph /  7.9km/h 5mph /  8km/h 66% 0in /  0.0mm 0 W/m2
00:46 58.1 °F /  14.5 °C 47.1 °F /  8.4 °C 30.2in /  1024.0hPa NNW 0.9mph /  1.4km/h 4mph /  6.4km/h 67% 0in /  0.0mm 0 W/m2
00:51 57.9 °F /  14.4 °C 46.9 °F /  8.3 °C 30.2in /  1024.0hPa WNW 2mph /  3.2km/h 3mph /  4.8km/h 67% 0in /  0.0mm 0 W/m2
00:56 57.7 °F /  14.3 °C 46.9 °F /  8.3 °C 30.2in /  1024.0hPa West 2mph /  3.2km/h 2mph /  3.2km/h 67% 0in /  0.0mm 0 W/m2
01:01 57.6 °F /  14.2 °C 47.1 °F /  8.4 °C 30.2in /  1024.0hPa Calm   1mph /  1.6km/h 68% 0in /  0.0mm 0 W/m2
01:06 57.2 °F /  14 °C 47.1 °F /  8.4 °C 30.2in /  1024.0hPa South 0.9mph /  1.4km/h 2mph /  3.2km/h 69% 0in /  0.0mm 0 W/m2
01:11 56.8 °F /  13.8 °C 47.1 °F /  8.4 °C 30.2in /  1024.0hPa SE 0.9mph /  1.4km/h 2mph /  3.2km/h 70% 0in /  0.0mm 0 W/m2
01:16 56.5 °F /  13.6 °C 46.8 °F /  8.2 °C 30.2in /  1024.0hPa ENE 0.9mph /  1.4km/h 2mph /  3.2km/h 70% 0in /  0.0mm 0 W/m2
01:21 56.5 °F /  13.6 °C 47.1 °F /  8.4 °C 30.2in /  1024.0hPa WNW 0.9mph /  1.4km/h 4mph /  6.4km/h 71% 0in /  0.0mm 0 W/m2
01:26 56.5 °F /  13.6 °C 47.1 °F /  8.4 °C 30.2in /  1024.0hPa Calm   2mph /  3.2km/h 71% 0in /  0.0mm 0 W/m2
01:31 56.3 °F /  13.5 °C 46.9 °F /  8.3 °C 30.2in /  1024.0hPa WSW 0.9mph /  1.4km/h 2mph /  3.2km/h 71% 0in /  0.0mm 0 W/m2
01:36 56.1 °F /  13.4 °C 46.8 °F /  8.2 °C 30.2in /  1024.0hPa Calm   1mph /  1.6km/h 71% 0in /  0.0mm 0 W/m2
01:41 56.1 °F /  13.4 °C 46.8 °F /  8.2 °C 30.2in /  1024.0hPa Calm   3mph /  4.8km/h 71% 0in /  0.0mm 0 W/m2
01:46 55.9 °F /  13.3 °C 46.8 °F /  8.2 °C 30.2in /  1024.0hPa NNE 2.9mph /  4.7km/h 5mph /  8km/h 71% 0in /  0.0mm 0 W/m2
01:51 55.9 °F /  13.3 °C 46.8 °F /  8.2 °C 30.2in /  1024.0hPa Calm   2mph /  3.2km/h 71% 0in /  0.0mm 0 W/m2
01:56 55.9 °F /  13.3 °C 46.8 °F /  8.2 °C 30.2in /  1024.0hPa Calm   4mph /  6.4km/h 71% 0in /  0.0mm 0 W/m2
02:01 55.9 °F /  13.3 °C 46.8 °F /  8.2 °C 30.2in /  1024.0hPa ENE 2.9mph /  4.7km/h 4mph /  6.4km/h 71% 0in /  0.0mm 0 W/m2
02:06 55.9 °F /  13.3 °C 46.8 °F /  8.2 °C 30.2in /  1024.0hPa North 0.9mph /  1.4km/h 4mph /  6.4km/h 71% 0in /  0.0mm 0 W/m2
02:11 55.8 °F /  13.2 °C 46.6 °F /  8.1 °C 30.2in /  1024.0hPa East 2mph /  3.2km/h 3mph /  4.8km/h 71% 0in /  0.0mm 0 W/m2
02:16 55.8 °F /  13.2 °C 46.6 °F /  8.1 °C 30.2in /  1024.0hPa Calm   3mph /  4.8km/h 71% 0in /  0.0mm 0 W/m2
02:21 55.6 °F /  13.1 °C 46.4 °F /  8 °C 30.2in /  1024.0hPa Calm   3mph /  4.8km/h 71% 0in /  0.0mm 0 W/m2
02:26 55.6 °F /  13.1 °C 46.4 °F /  8 °C 30.2in /  1024.0hPa NNE 0.9mph /  1.4km/h 2mph /  3.2km/h 71% 0in /  0.0mm 0 W/m2
02:31 55.4 °F /  13 °C 46.2 °F /  7.9 °C 30.2in /  1024.0hPa Calm   1mph /  1.6km/h 71% 0in /  0.0mm 0 W/m2
02:36 55.2 °F /  12.9 °C 46.4 °F /  8 °C 30.2in /  1024.0hPa Calm   1mph /  1.6km/h 72% 0in /  0.0mm 0 W/m2
02:41 55 °F /  12.8 °C 46.6 °F /  8.1 °C 30.2in /  1024.0hPa Calm   1mph /  1.6km/h 73% 0in /  0.0mm 0 W/m2
02:46 54.7 °F /  12.6 °C 46.2 °F /  7.9 °C 30.2in /  1023.7hPa East 2mph /  3.2km/h 3mph /  4.8km/h 73% 0in /  0.0mm 0 W/m2
02:51 54.5 °F /  12.5 °C 46 °F /  7.8 °C 30.2in /  1023.7hPa East 2mph /  3.2km/h 2mph /  3.2km/h 73% 0in /  0.0mm 0 W/m2
02:56 54.3 °F /  12.4 °C 45.9 °F /  7.7 °C 30.2in /  1023.7hPa NNE 2mph /  3.2km/h 2mph /  3.2km/h 73% 0in /  0.0mm 0 W/m2
03:02 54.3 °F /  12.4 °C 46.2 °F /  7.9 °C 30.2in /  1024.0hPa Calm   1mph /  1.6km/h 74% 0in /  0.0mm 0 W/m2
03:07 54.1 °F /  12.3 °C 46 °F /  7.8 °C 30.2in /  1023.7hPa ESE 0.9mph /  1.4km/h 2mph /  3.2km/h 74% 0in /  0.0mm 0 W/m2
03:12 53.8 °F /  12.1 °C 46 °F /  7.8 °C 30.2in /  1023.7hPa ESE 0.9mph /  1.4km/h 2mph /  3.2km/h 75% 0in /  0.0mm 0 W/m2
03:17 53.4 °F /  11.9 °C 45.7 °F /  7.6 °C 30.2in /  1024.0hPa Calm   2mph /  3.2km/h 75% 0in /  0.0mm 0 W/m2
03:22 53.1 °F /  11.7 °C 45.7 °F /  7.6 °C 30.2in /  1024.0hPa Calm   1mph /  1.6km/h 76% 0in /  0.0mm 0 W/m2
03:27 52.7 °F /  11.5 °C 45.3 °F /  7.4 °C 30.2in /  1023.7hPa West 2.9mph /  4.7km/h 3mph /  4.8km/h 76% 0in /  0.0mm 0 W/m2
03:32 52.7 °F /  11.5 °C 45.3 °F /  7.4 °C 30.2in /  1024.0hPa WNW 0.9mph /  1.4km/h 2mph /  3.2km/h 76% 0in /  0.0mm 0 W/m2
03:37 52.5 °F /  11.4 °C 45.1 °F /  7.3 °C 30.2in /  1024.0hPa WSW 2mph /  3.2km/h 2mph /  3.2km/h 76% 0in /  0.0mm 0 W/m2
03:42 52.5 °F /  11.4 °C 45.1 °F /  7.3 °C 30.2in /  1024.0hPa Calm   2mph /  3.2km/h 76% 0in /  0.0mm 0 W/m2
03:47 52.5 °F /  11.4 °C 45.1 °F /  7.3 °C 30.2in /  1023.7hPa WNW 2.9mph /  4.7km/h 3mph /  4.8km/h 76% 0in /  0.0mm 0 W/m2
03:52 52.5 °F /  11.4 °C 45.1 °F /  7.3 °C 30.2in /  1023.7hPa North 0.9mph /  1.4km/h 4mph /  6.4km/h 76% 0in /  0.0mm 0 W/m2
03:57 52.5 °F /  11.4 °C 45.1 °F /  7.3 °C 30.2in /  1023.7hPa SSE 0.9mph /  1.4km/h 3mph /  4.8km/h 76% 0in /  0.0mm 0 W/m2
04:02 52.5 °F /  11.4 °C 44.8 °F /  7.1 °C 30.2in /  1023.7hPa NNE 0.9mph /  1.4km/h 3mph /  4.8km/h 75% 0in /  0.0mm 0 W/m2
04:07 52.7 °F /  11.5 °C 45 °F /  7.2 °C 30.2in /  1023.7hPa ENE 0.9mph /  1.4km/h 4mph /  6.4km/h 75% 0in /  0.0mm 0 W/m2
04:12 52.7 °F /  11.5 °C 44.6 °F /  7 °C 30.2in /  1024.0hPa ENE 2mph /  3.2km/h 2mph /  3.2km/h 74% 0in /  0.0mm 0 W/m2
04:17 52.7 °F /  11.5 °C 45 °F /  7.2 °C 30.2in /  1024.0hPa Calm   3mph /  4.8km/h 75% 0in /  0.0mm 0 W/m2
04:22 52.5 °F /  11.4 °C 44.8 °F /  7.1 °C 30.2in /  1024.0hPa NE 2mph /  3.2km/h 5mph /  8km/h 75% 0in /  0.0mm 0 W/m2
04:27 52.7 °F /  11.5 °C 45 °F /  7.2 °C 30.2in /  1024.0hPa Calm   1mph /  1.6km/h 75% 0in /  0.0mm 0 W/m2
04:32 52.7 °F /  11.5 °C 45 °F /  7.2 °C 30.2in /  1024.0hPa Calm   5mph /  8km/h 75% 0in /  0.0mm 0 W/m2
04:37 52.5 °F /  11.4 °C 44.8 °F /  7.1 °C 30.2in /  1024.0hPa SSE 0.9mph /  1.4km/h 3mph /  4.8km/h 75% 0in /  0.0mm 0 W/m2
04:42 52.3 °F /  11.3 °C 44.6 °F /  7 °C 30.2in /  1024.0hPa ESE 2mph /  3.2km/h 2mph /  3.2km/h 75% 0in /  0.0mm 0 W/m2
04:47 52.3 °F /  11.3 °C 44.6 °F /  7 °C 30.2in /  1024.0hPa East 2mph /  3.2km/h 5mph /  8km/h 75% 0in /  0.0mm 0 W/m2
04:52 52.2 °F /  11.2 °C 44.4 °F /  6.9 °C 30.2in /  1024.0hPa NW 2.9mph /  4.7km/h 8mph /  12.9km/h 75% 0in /  0.0mm 0 W/m2
04:57 52.2 °F /  11.2 °C 44.4 °F /  6.9 °C 30.2in /  1024.0hPa East 2mph /  3.2km/h 3mph /  4.8km/h 75% 0in /  0.0mm 0 W/m2
05:02 52.2 °F /  11.2 °C 44.4 °F /  6.9 °C 30.2in /  1024.0hPa ENE 0.9mph /  1.4km/h 8mph /  12.9km/h 75% 0in /  0.0mm 0 W/m2
05:07 52 °F /  11.1 °C 44.6 °F /  7 °C 30.2in /  1024.0hPa NE 2mph /  3.2km/h 3mph /  4.8km/h 76% 0in /  0.0mm 0 W/m2
05:12 51.8 °F /  11 °C 44.4 °F /  6.9 °C 30.2in /  1024.0hPa WNW 0.9mph /  1.4km/h 1mph /  1.6km/h 76% 0in /  0.0mm 0 W/m2
05:17 51.6 °F /  10.9 °C 44.2 °F /  6.8 °C 30.2in /  1024.0hPa North 2mph /  3.2km/h 3mph /  4.8km/h 76% 0in /  0.0mm 0 W/m2
05:22 51.6 °F /  10.9 °C 44.2 °F /  6.8 °C 30.2in /  1024.0hPa Calm   2mph /  3.2km/h 76% 0in /  0.0mm 0 W/m2
05:27 51.4 °F /  10.8 °C 44.1 °F /  6.7 °C 30.2in /  1024.0hPa ESE 0.9mph /  1.4km/h 6mph /  9.7km/h 76% 0in /  0.0mm 0 W/m2
05:32 51.4 °F /  10.8 °C 44.1 °F /  6.7 °C 30.2in /  1024.0hPa ENE 0.9mph /  1.4km/h 2mph /  3.2km/h 76% 0in /  0.0mm 0 W/m2
05:37 51.3 °F /  10.7 °C 44.2 °F /  6.8 °C 30.2in /  1024.0hPa Calm   1mph /  1.6km/h 77% 0in /  0.0mm 5 W/m2
05:42 51.1 °F /  10.6 °C 44.1 °F /  6.7 °C 30.2in /  1024.0hPa SE 2mph /  3.2km/h 3mph /  4.8km/h 77% 0in /  0.0mm 5 W/m2
05:47 51.1 °F /  10.6 °C 44.1 °F /  6.7 °C 30.2in /  1024.0hPa Calm   3mph /  4.8km/h 77% 0in /  0.0mm 9 W/m2
05:52 50.9 °F /  10.5 °C 43.9 °F /  6.6 °C 30.2in /  1024.0hPa Calm   1mph /  1.6km/h 77% 0in /  0.0mm 11 W/m2
05:57 50.9 °F /  10.5 °C 44.2 °F /  6.8 °C 30.2in /  1024.0hPa Calm   1mph /  1.6km/h 78% 0in /  0.0mm 12 W/m2
06:02 50.7 °F /  10.4 °C 44.1 °F /  6.7 °C 30.2in /  1024.0hPa South 2mph /  3.2km/h 2mph /  3.2km/h 78% 0in /  0.0mm 14 W/m2
06:07 50.7 °F /  10.4 °C 44.1 °F /  6.7 °C 30.2in /  1023.7hPa ESE 0.9mph /  1.4km/h 4mph /  6.4km/h 78% 0in /  0.0mm 16 W/m2
06:12 50.7 °F /  10.4 °C 44.4 °F /  6.9 °C 30.2in /  1024.0hPa ENE 0.9mph /  1.4km/h 3mph /  4.8km/h 79% 0in /  0.0mm 19 W/m2
06:17 50.5 °F /  10.3 °C 44.2 °F /  6.8 °C 30.2in /  1024.0hPa East 2mph /  3.2km/h 3mph /  4.8km/h 79% 0in /  0.0mm 21 W/m2
06:22 50.5 °F /  10.3 °C 44.2 °F /  6.8 °C 30.2in /  1024.0hPa Calm   2mph /  3.2km/h 79% 0in /  0.0mm 23 W/m2
06:27 50.7 °F /  10.4 °C 44.4 °F /  6.9 °C 30.2in /  1024.0hPa ENE 0.9mph /  1.4km/h 1mph /  1.6km/h 79% 0in /  0.0mm 25 W/m2
06:32 50.7 °F /  10.4 °C 44.4 °F /  6.9 °C 30.2in /  1024.0hPa NW 2mph /  3.2km/h 3mph /  4.8km/h 79% 0in /  0.0mm 26 W/m2
06:37 50.7 °F /  10.4 °C 44.4 °F /  6.9 °C 30.2in /  1024.0hPa Calm   3mph /  4.8km/h 79% 0in /  0.0mm 26 W/m2
06:42 50.9 °F /  10.5 °C 44.6 °F /  7 °C 30.2in /  1024.0hPa Calm   4mph /  6.4km/h 79% 0in /  0.0mm 28 W/m2
06:47 51.1 °F /  10.6 °C 44.8 °F /  7.1 °C 30.2in /  1024.0hPa East 2mph /  3.2km/h 6mph /  9.7km/h 79% 0in /  0.0mm 30 W/m2
06:52 51.1 °F /  10.6 °C 44.8 °F /  7.1 °C 30.2in /  1024.0hPa NE 2mph /  3.2km/h 2mph /  3.2km/h 79% 0in /  0.0mm 32 W/m2
06:57 51.3 °F /  10.7 °C 44.6 °F /  7 °C 30.2in /  1024.0hPa WNW 2mph /  3.2km/h 3mph /  4.8km/h 78% 0in /  0.0mm 32 W/m2
07:02 51.3 °F /  10.7 °C 44.6 °F /  7 °C 30.2in /  1024.0hPa NE 0.9mph /  1.4km/h 4mph /  6.4km/h 78% 0in /  0.0mm 33 W/m2
07:07 51.3 °F /  10.7 °C 44.6 °F /  7 °C 30.2in /  1024.0hPa NW 0.9mph /  1.4km/h 4mph /  6.4km/h 78% 0in /  0.0mm 35 W/m2
07:12 51.4 °F /  10.8 °C 44.8 °F /  7.1 °C 30.2in /  1024.0hPa WSW 2mph /  3.2km/h 4mph /  6.4km/h 78% 0in /  0.0mm 35 W/m2
07:17 51.6 °F /  10.9 °C 45 °F /  7.2 °C 30.2in /  1024.0hPa North 2.9mph /  4.7km/h 3mph /  4.8km/h 78% 0in /  0.0mm 37 W/m2
07:22 51.8 °F /  11 °C 45.1 °F /  7.3 °C 30.2in /  1024.0hPa North 0.9mph /  1.4km/h 3mph /  4.8km/h 78% 0in /  0.0mm 37 W/m2
07:27 52 °F /  11.1 °C 45.3 °F /  7.4 °C 30.2in /  1024.0hPa NNE 0.9mph /  1.4km/h 2mph /  3.2km/h 78% 0in /  0.0mm 39 W/m2
07:32 52.2 °F /  11.2 °C 45.1 °F /  7.3 °C 30.2in /  1024.0hPa NNW 2.9mph /  4.7km/h 3mph /  4.8km/h 77% 0in /  0.0mm 40 W/m2
07:37 52.3 °F /  11.3 °C 45.3 °F /  7.4 °C 30.2in /  1024.0hPa NNE 0.9mph /  1.4km/h 4mph /  6.4km/h 77% 0in /  0.0mm 40 W/m2
07:42 52.5 °F /  11.4 °C 45.5 °F /  7.5 °C 30.2in /  1024.0hPa West 0.9mph /  1.4km/h 2mph /  3.2km/h 77% 0in /  0.0mm 162 W/m2
07:47 52.9 °F /  11.6 °C 45.9 °F /  7.7 °C 30.2in /  1024.0hPa West 0.9mph /  1.4km/h 2mph /  3.2km/h 77% 0in /  0.0mm 234 W/m2
07:52 53.1 °F /  11.7 °C 46 °F /  7.8 °C 30.2in /  1024.0hPa NW 0.9mph /  1.4km/h 4mph /  6.4km/h 77% 0in /  0.0mm 255 W/m2
07:57 53.4 °F /  11.9 °C 46 °F /  7.8 °C 30.2in /  1024.0hPa WNW 2.9mph /  4.7km/h 5mph /  8km/h 76% 0in /  0.0mm 195 W/m2
08:02 54 °F /  12.2 °C 46.6 °F /  8.1 °C 30.2in /  1024.0hPa Calm   2mph /  3.2km/h 76% 0in /  0.0mm 98 W/m2
08:07 54.5 °F /  12.5 °C 46.8 °F /  8.2 °C 30.2in /  1024.0hPa WNW 0.9mph /  1.4km/h 2mph /  3.2km/h 75% 0in /  0.0mm 53 W/m2
08:12 55 °F /  12.8 °C 46.9 °F /  8.3 °C 30.2in /  1024.0hPa North 2.9mph /  4.7km/h 4mph /  6.4km/h 74% 0in /  0.0mm 51 W/m2
08:17 55 °F /  12.8 °C 46.6 °F /  8.1 °C 30.2in /  1024.0hPa NW 2mph /  3.2km/h 4mph /  6.4km/h 73% 0in /  0.0mm 51 W/m2
08:22 55.6 °F /  13.1 °C 47.5 °F /  8.6 °C 30.2in /  1024.0hPa East 2mph /  3.2km/h 3mph /  4.8km/h 74% 0in /  0.0mm 51 W/m2
08:27 55.9 °F /  13.3 °C 47.5 °F /  8.6 °C 30.2in /  1024.0hPa North 2mph /  3.2km/h 4mph /  6.4km/h 73% 0in /  0.0mm 49 W/m2
08:32 56.7 °F /  13.7 °C 47.3 °F /  8.5 °C 30.2in /  1024.0hPa ENE 4mph /  6.4km/h 6mph /  9.7km/h 71% 0in /  0.0mm 51 W/m2
08:37 56.8 °F /  13.8 °C 47.5 °F /  8.6 °C 30.2in /  1024.0hPa NW 0.9mph /  1.4km/h 3mph /  4.8km/h 71% 0in /  0.0mm 51 W/m2
08:42 56.8 °F /  13.8 °C 47.1 °F /  8.4 °C 30.2in /  1024.0hPa NNW 0.9mph /  1.4km/h 3mph /  4.8km/h 70% 0in /  0.0mm 51 W/m2
08:47 57.4 °F /  14.1 °C 47.7 °F /  8.7 °C 30.2in /  1024.0hPa North 0.9mph /  1.4km/h 3mph /  4.8km/h 70% 0in /  0.0mm 53 W/m2
08:52 57.6 °F /  14.2 °C 47.8 °F /  8.8 °C 30.2in /  1024.0hPa ESE 2mph /  3.2km/h 3mph /  4.8km/h 70% 0in /  0.0mm 53 W/m2
08:57 58.3 °F /  14.6 °C 47.8 °F /  8.8 °C 30.2in /  1024.0hPa SSE 0.9mph /  1.4km/h 8mph /  12.9km/h 68% 0in /  0.0mm 114 W/m2
09:02 58.3 °F /  14.6 °C 47.3 °F /  8.5 °C 30.2in /  1024.0hPa NNE 0.9mph /  1.4km/h 7mph /  11.3km/h 67% 0in /  0.0mm 281 W/m2
09:07 58.3 °F /  14.6 °C 47.3 °F /  8.5 °C 30.2in /  1024.0hPa NE 2mph /  3.2km/h 8mph /  12.9km/h 67% 0in /  0.0mm 445 W/m2
09:12 58.5 °F /  14.7 °C 47.5 °F /  8.6 °C 30.3in /  1024.4hPa ESE 2.9mph /  4.7km/h 7mph /  11.3km/h 67% 0in /  0.0mm 473 W/m2
09:17 58.5 °F /  14.7 °C 48 °F /  8.9 °C 30.3in /  1024.4hPa SE 0.9mph /  1.4km/h 3mph /  4.8km/h 68% 0in /  0.0mm 483 W/m2
09:22 58.8 °F /  14.9 °C 47.8 °F /  8.8 °C 30.3in /  1024.4hPa ESE 2mph /  3.2km/h 4mph /  6.4km/h 67% 0in /  0.0mm 506 W/m2
09:27 59.2 °F /  15.1 °C 48.2 °F /  9 °C 30.2in /  1024.0hPa Calm   4mph /  6.4km/h 67% 0in /  0.0mm 517 W/m2
09:32 59.4 °F /  15.2 °C 48 °F /  8.9 °C 30.3in /  1024.4hPa ENE 2.9mph /  4.7km/h 4mph /  6.4km/h 66% 0in /  0.0mm 533 W/m2
09:37 59.4 °F /  15.2 °C 48 °F /  8.9 °C 30.2in /  1024.0hPa ENE 2mph /  3.2km/h 5mph /  8km/h 66% 0in /  0.0mm 554 W/m2
09:42 59.7 °F /  15.4 °C 48.4 °F /  9.1 °C 30.2in /  1024.0hPa SSE 0.9mph /  1.4km/h 8mph /  12.9km/h 66% 0in /  0.0mm 568 W/m2
09:47 60.1 °F /  15.6 °C 48.2 °F /  9 °C 30.2in /  1024.0hPa ESE 0.9mph /  1.4km/h 6mph /  9.7km/h 65% 0in /  0.0mm 577 W/m2
09:52 60.3 °F /  15.7 °C 48.9 °F /  9.4 °C 30.2in /  1024.0hPa ENE 2mph /  3.2km/h 3mph /  4.8km/h 66% 0in /  0.0mm 594 W/m2
09:57 60.4 °F /  15.8 °C 48.6 °F /  9.2 °C 30.2in /  1024.0hPa Calm   4mph /  6.4km/h 65% 0in /  0.0mm 598 W/m2
10:02 60.6 °F /  15.9 °C 48.7 °F /  9.3 °C 30.2in /  1024.0hPa NW 0.9mph /  1.4km/h 5mph /  8km/h 65% 0in /  0.0mm 60 W/m2
10:07 61.2 °F /  16.2 °C 48.9 °F /  9.4 °C 30.2in /  1024.0hPa East 4mph /  6.4km/h 9mph /  14.5km/h 64% 0in /  0.0mm 626 W/m2
10:12 61 °F /  16.1 °C 48.7 °F /  9.3 °C 30.2in /  1024.0hPa North 2mph /  3.2km/h 2mph /  3.2km/h 64% 0in /  0.0mm 640 W/m2
10:17 61.2 °F /  16.2 °C 48.9 °F /  9.4 °C 30.2in /  1024.0hPa NNE 2mph /  3.2km/h 4mph /  6.4km/h 64% 0in /  0.0mm 654 W/m2
10:23 61.5 °F /  16.4 °C 49.3 °F /  9.6 °C 30.2in /  1024.0hPa ENE 2mph /  3.2km/h 4mph /  6.4km/h 64% 0in /  0.0mm 673 W/m2
Juneau County Weather
Compliments of Weather Underground - 4 mb